Tiempo atmosférico en la estación meteorológica de Binissalem, Illes Balears (105 m.)



Fecha
DESCASC
Temp. máxima en grados centígrados (hora)
DESCASC
Temp. mínima en grados centígrados (hora)
DESCASC
Temp. media en grados centígrados
DESCASC
Racha de viento máxima en m/sg (hora)
DESCASC
Velocidad máxima media en intervalos de 10 minutos(hora)
DESCASC
Precipitaciones diarias en mm
DESCASC
Precipitaciones de 00:00 a 06:00 en mm
DESCASC
Precipitaciones de 06:00 a 12:00 en mm
DESCASC
Precipitaciones de 12:00 a 18:00 en mm
DESCASC
Precipitaciones de 18:00 a 24:00 en mm
DESCASC
16-06-2019 27.9 (14:20) 16.1 (06:10) 22 10.83 (08:50) 6.67 (08:50) 0 0 0 0 0
15-06-2019 31.8 (14:50) 16.8 (03:50) 24.3 8.89 (15:30) 5.28 (15:20) 0 0 0 0 0
14-06-2019 26.1 (16:40) 19.1 (23:50) 22.6 13.61 (12:30) 9.17 (10:20) 0 0 0 0 0
13-06-2019 27.1 (14:40) 12.9 (00:00) 20 11.39 (17:20) 7.22 (17:20) 0 0 0 0 0
12-06-2019 -- (--) -- (--) -- -- (--) -- (--) -- 0 -- -- 0
11-06-2019 25.1 (15:00) 15.2 (00:00) 20.2 10.83 (20:30) 6.67 (20:30) 0 0 0 0 0
10-06-2019 28 (14:30) 16 (00:00) 22 11.11 (10:10) 6.67 (08:40) 0 0 0 0 0
09-06-2019 31.1 (17:00) 17.6 (00:00) 24.4 8.61 (02:00) 5.28 (00:10) 0 0 0 0 0
08-06-2019 24.8 (15:30) 16 (00:00) 20.4 14.17 (11:50) 8.61 (13:20) 0 0 0 0 0
07-06-2019 28.1 (15:40) 14.3 (00:00) 21.2 11.39 (14:10) 8.06 (14:10) 0 0 0 0 0
06-06-2019 27.3 (15:20) 15.8 (00:00) 21.5 10 (18:00) 6.11 (17:30) 0 0 0 0 0
05-06-2019 28 (15:30) 13.1 (00:00) 20.6 13.89 (17:40) 8.33 (16:00) 0 0 0 0 0
04-06-2019 30.3 (16:00) 12.3 (00:00) 21.3 8.33 (15:40) 5 (18:10) 0 0 0 0 0
03-06-2019 30.2 (14:20) 11.4 (00:00) 20.8 10 (15:50) 6.67 (15:30) 0 0 0 0 0
02-06-2019 28.8 (13:50) 10.1 (00:00) 19.4 8.89 (15:20) 5.28 (15:20) 0 0 0 0 0
01-06-2019 28.1 (14:30) 10.9 (00:00) 19.5 8.33 (17:10) 5.28 (17:10) 0 0 0 0 0
31-05-2019 26.2 (13:00) 10.2 (00:00) 18.2 8.61 (15:40) 5.28 (15:20) 0 0 0 0 0
30-05-2019 25.3 (16:50) 10.7 (00:00) 18 10 (15:10) 6.94 (15:30) 0 0 0 0 0
29-05-2019 22.2 (14:30) 12.2 (00:00) 17.2 10 (16:10) 6.39 (16:50) 0 0 0 0 0
28-05-2019 25.4 (13:50) 13.2 (00:00) 19.3 11.11 (19:10) 6.39 (19:00) 0 0 0 0 0
27-05-2019 25.5 (16:50) 14.6 (00:00) 20.1 10.28 (16:50) 7.22 (15:30) 0 0 0 0 0
26-05-2019 24.4 (12:00) 14.7 (00:00) 19.5 10 (11:50) 6.11 (11:50) 0 0 0 0 0
25-05-2019 19.5 (17:50) 14.5 (00:00) 17 8.61 (17:30) 5 (14:40) 0.2 0 0 0.2 0
24-05-2019 21.6 (11:50) 14.5 (00:00) 18.1 3.89 (19:20) 2.5 (12:40) 1.2 0 0 1 0.2
23-05-2019 26.5 (14:10) 10.7 (00:00) 18.6 8.89 (16:40) 6.11 (17:30) 0 0 0 0 0
22-05-2019 27 (15:20) 9.5 (00:00) 18.3 9.17 (16:40) 6.39 (16:40) 0 0 0 0 0
21-05-2019 25.5 (12:50) 8.5 (06:50) 17 9.17 (13:20) 7.5 (13:30) 0 0 0 0 0

Gráficas

Temp. máximas Temp. mínimas Temp. medias Precipitaciones Rachas de viento máximas Velocidades máximas media en intervalos de 10 minutos

Datos horarios

Fecha y hora oficial Temperatura (ºC) Velocidad del viento (km/h) Dirección del viento Racha (km/h) Dirección de racha Precipitación (mm) Presión (hPa) Tendencia (hPa) Humedad (%)
2019-06-19 23:00:00 19.5 9 Sudoeste 12 Sudoeste 0 -- -- 89
2019-06-19 22:00:00 20.8 8 Oeste 18 Oeste 0 -- -- 84
2019-06-19 21:00:00 22.4 13 Oeste 23 Sudoeste 0 -- -- 75
2019-06-19 20:00:00 25 15 Sudoeste 22 Oeste 0 -- -- 62
2019-06-19 19:00:00 27.2 10 Oeste 19 Oeste 0 -- -- 52
2019-06-19 18:00:00 27.3 13 Sudoeste 26 Sudoeste 0 -- -- 53
2019-06-19 17:00:00 26.9 19 Sudoeste 29 Sudoeste 0 -- -- 55
2019-06-19 16:00:00 27.7 17 Sudoeste 31 Oeste 0 -- -- 54
2019-06-19 15:00:00 28 17 Sudoeste -- -- -- -- -- 55
2019-06-19 14:00:00 26.8 14 Sudoeste 31 Sudoeste 0 -- -- 58
2019-06-19 13:00:00 26.6 18 Sudoeste -- -- -- -- -- 58
2019-06-19 12:00:00 -- -- -- -- -- -- -- -- --
2019-06-19 11:00:00 -- -- -- -- -- -- -- -- --
2019-06-19 10:00:00 -- -- -- -- -- -- -- -- --
2019-06-19 09:00:00 -- -- -- -- -- -- -- -- --
2019-06-19 08:00:00 -- -- -- -- -- -- -- -- --
2019-06-19 07:00:00 -- -- -- -- -- -- -- -- --
2019-06-19 06:00:00 -- -- -- -- -- -- -- -- --
2019-06-19 05:00:00 -- -- -- -- -- -- -- -- --
2019-06-19 04:00:00 -- -- -- -- -- -- -- -- --
2019-06-19 03:00:00 -- -- -- -- -- -- -- -- --
2019-06-19 02:00:00 -- -- -- -- -- -- -- -- --
2019-06-19 01:00:00 -- -- -- -- -- -- -- -- --
2019-06-19 00:00:00 -- -- -- -- -- -- -- -- --
2019-06-18 23:00:00 -- -- -- -- -- -- -- -- --
2019-06-18 22:00:00 -- -- -- -- -- -- -- -- --
2019-06-18 21:00:00 -- -- -- -- -- -- -- -- --
2019-06-18 20:00:00 -- -- -- -- -- -- -- -- --
2019-06-18 19:00:00 28.5 13 Sudoeste 25 Oeste 0 -- -- 35
2019-06-18 18:00:00 29.2 15 Sudoeste 29 Sudoeste 0 -- -- 35
2019-06-18 17:00:00 29.3 20 Sudoeste 36 Oeste 0 -- -- 35
2019-06-18 16:00:00 29.4 20 Oeste 32 Oeste 0 -- -- 34
2019-06-18 15:00:00 29.8 17 Sudoeste 28 Oeste 0 -- -- 31
2019-06-18 14:00:00 30 18 Oeste 35 Sudoeste 0 -- -- 30
2019-06-18 13:00:00 30.3 12 Sudoeste 27 Sur 0 -- -- 30
2019-06-18 12:00:00 29.4 11 Sudoeste 23 Sur 0 -- -- 29
2019-06-18 11:00:00 27.8 7 Sudoeste 15 Sudoeste 0 -- -- 33
2019-06-18 10:00:00 26.2 5 Sur 10 Sudoeste 0 -- -- 37
2019-06-18 09:00:00 23.1 2 Sudeste 5 Sur 0 -- -- 53
2019-06-18 08:00:00 17.9 0 Calma 3 Sudoeste 0 -- -- 68
2019-06-18 07:00:00 13.1 0 Calma 5 Nordeste 0 -- -- 77
2019-06-18 06:00:00 13 0 Calma 7 Sudoeste 0 -- -- 77
2019-06-18 05:00:00 13.3 4 Sudoeste 6 Sudoeste 0 -- -- 74
2019-06-18 04:00:00 13.6 0 Calma 5 Sudoeste 0 -- -- 74
2019-06-18 03:00:00 14.5 3 Sudoeste 7 Sudoeste 0 -- -- 72
2019-06-18 02:00:00 14.8 3 Sur 5 Oeste 0 -- -- 71
2019-06-18 01:00:00 16.2 5 Oeste 6 Oeste 0 -- -- 70
2019-06-18 00:00:00 17.9 0 Calma 8 Oeste 0 -- -- 69
2019-06-17 23:00:00 19.1 4 Sudoeste 10 Sudoeste 0 -- -- 62
2019-06-17 22:00:00 21 6 Oeste 20 Sudoeste 0 -- -- 56
2019-06-17 21:00:00 23 15 Sudoeste 23 Sudoeste 0 -- -- 48
2019-06-17 20:00:00 26 13 Oeste 22 Oeste 0 -- -- 36
2019-06-17 19:00:00 27.1 13 Sudoeste 20 Oeste 0 -- -- 40
2019-06-17 18:00:00 27.1 15 Oeste 25 Sudoeste 0 -- -- 38
2019-06-17 17:00:00 27.6 14 Sudoeste 27 Sudoeste 0 -- -- 36
2019-06-17 16:00:00 28.4 17 Sudoeste 31 Sudoeste 0 -- -- 35
2019-06-17 15:00:00 28.6 17 Sudoeste 32 Sur 0 -- -- 36
2019-06-17 14:00:00 28.9 20 Sudoeste 31 Sur 0 -- -- 36
2019-06-17 13:00:00 29.5 20 Sudoeste 29 Sur 0 -- -- 35
2019-06-17 12:00:00 29.5 9 Sudeste 21 Sur 0 -- -- 29
2019-06-17 11:00:00 27.9 4 Este 9 Sudeste 0 -- -- 37
2019-06-17 10:00:00 24.8 4 Este 10 Este 0 -- -- 53
2019-06-17 09:00:00 22.7 5 Este 9 Este 0 -- -- 61
2019-06-17 08:00:00 17.7 0 Calma 4 Noroeste 0 -- -- 76
2019-06-17 07:00:00 13.5 0 Calma 6 Noroeste 0 -- -- 89
2019-06-17 06:00:00 14.3 4 Noroeste 7 Noroeste 0 -- -- 91
2019-06-17 05:00:00 15.5 0 Calma 2 Nordeste 0 -- -- 89
2019-06-17 04:00:00 16.8 3 Sudoeste 12 Sudoeste 0 -- -- 90
2019-06-17 03:00:00 17.3 4 Sudoeste 10 Oeste 0 -- -- 88
2019-06-17 02:00:00 18.2 5 Oeste 15 Oeste 0 -- -- 88
2019-06-17 01:00:00 18.1 4 Sudoeste 9 Sudoeste 0 -- -- 85
2019-06-17 00:00:00 19 5 Sudoeste 10 Sudoeste 0 -- -- 81
2019-06-16 23:00:00 19.4 7 Sudoeste 17 Sudoeste 0 -- -- 80
2019-06-16 22:00:00 20.4 8 Noroeste 15 Oeste 0 -- -- 72
2019-06-16 21:00:00 22.4 6 Sudeste 10 Nordeste 0 -- -- 47
2019-06-16 20:00:00 24.5 5 Nordeste 14 Nordeste 0 -- -- 41
2019-06-16 19:00:00 25.4 10 Este 20 Este 0 -- -- 38
2019-06-16 18:00:00 27.3 9 Nordeste 23 Nordeste 0 -- -- 36
2019-06-16 17:00:00 27.6 10 Este 22 Este 0 -- -- 36
2019-06-16 16:00:00 27.8 13 Nordeste 29 Este 0 -- -- 40
2019-06-16 15:00:00 26.7 15 Este 31 Este 0 -- -- 41
2019-06-16 14:00:00 27.2 14 Este 30 Este 0 -- -- 45
2019-06-16 13:00:00 26.9 17 Este 33 Este 0 -- -- 46
2019-06-16 12:00:00 25 17 Nordeste 32 Nordeste 0 -- -- 52
2019-06-16 11:00:00 24 18 Nordeste 33 Nordeste 0 -- -- 54
2019-06-16 10:00:00 22.1 21 Nordeste 37 Nordeste 0 -- -- 59
2019-06-16 09:00:00 20.6 23 Nordeste 39 Nordeste 0 -- -- 64
2019-06-16 08:00:00 18.9 19 Nordeste 28 Nordeste 0 -- -- 71
2019-06-16 07:00:00 17.3 12 Nordeste 20 Nordeste 0 -- -- 79
2019-06-16 06:00:00 16.4 6 Nordeste 15 Nordeste 0 -- -- 86
2019-06-16 05:00:00 16.7 8 Nordeste 15 Nordeste 0 -- -- 87
2019-06-16 04:00:00 17.2 10 Nordeste 18 Nordeste 0 -- -- 85
2019-06-16 03:00:00 17.5 11 Nordeste 21 Nordeste 0 -- -- 84
2019-06-16 02:00:00 18 14 Nordeste 31 Nordeste 0 -- -- 81
2019-06-16 01:00:00 18.7 19 Nordeste 29 Nordeste 0 -- -- 80
2019-06-16 00:00:00 19 13 Nordeste 22 Nordeste 0 -- -- 85
2019-06-15 23:00:00 19.5 10 Nordeste 18 Nordeste 0 -- -- 86
2019-06-15 22:00:00 19.9 10 Este 21 Este 0 -- -- 85
2019-06-15 21:00:00 21.7 12 Este 24 Nordeste 0 -- -- 76
2019-06-15 20:00:00 25.3 14 Este 26 Este 0 -- -- 63
2019-06-15 19:00:00 27.4 13 Este 23 Este 0 -- -- 56
2019-06-15 18:00:00 28.2 14 Este 32 Este 0 -- -- 52
2019-06-15 17:00:00 30.1 15 Este 29 Este 0 -- -- 48
2019-06-15 16:00:00 30.2 14 Este 32 Este 0 -- -- 45
2019-06-15 15:00:00 31 14 Este 30 Nordeste 0 -- -- 43
2019-06-15 14:00:00 29 5 Sudoeste 18 Sudeste 0 -- -- 48
2019-06-15 13:00:00 27.5 9 Sudeste 21 Sudoeste 0 -- -- 53
2019-06-15 12:00:00 26.3 12 Sudoeste 23 Oeste 0 -- -- 55
2019-06-15 11:00:00 23.7 10 Oeste 23 Oeste 0 -- -- 64
2019-06-15 10:00:00 21.5 16 Sudoeste 27 Oeste 0 -- -- 73
2019-06-15 09:00:00 20.1 18 Sudoeste 26 Oeste 0 -- -- 77
2019-06-15 08:00:00 19.7 14 Sudoeste 24 Sudoeste 0 -- -- 78
2019-06-15 07:00:00 18.9 11 Oeste 23 Sudoeste 0 -- -- 82
2019-06-15 06:00:00 18.6 12 Oeste 23 Oeste 0 -- -- 86
2019-06-15 05:00:00 17.4 9 Sudoeste 17 Sudoeste 0 -- -- 91
2019-06-15 04:00:00 16.9 10 Sudoeste 15 Oeste 0 -- -- 92
2019-06-15 03:00:00 17 10 Oeste 14 Oeste 0 -- -- 91
2019-06-15 02:00:00 17.7 10 Sudoeste 14 Oeste 0 -- -- 90
2019-06-15 01:00:00 18.5 7 Sudoeste 21 Sudoeste 0 -- -- 89
2019-06-15 00:00:00 19.1 11 Sudoeste 26 Sudoeste 0 -- -- 89
2019-06-14 23:00:00 19.6 18 Sudoeste 27 Sudoeste 0 -- -- 87
2019-06-14 22:00:00 20.4 18 Sudoeste 28 Sudoeste 0 -- -- 82
2019-06-14 21:00:00 20.8 11 Sudoeste 36 Sudoeste 0 -- -- 78
2019-06-14 20:00:00 22.9 22 Sudoeste 36 Sudoeste 0 -- -- 64
2019-06-14 19:00:00 24.8 25 Sudoeste 37 Sudoeste 0 -- -- 49
2019-06-14 18:00:00 25.5 23 Sudoeste 37 Sudoeste 0 -- -- 49
2019-06-14 17:00:00 26 21 Oeste 35 Oeste 0 -- -- 50
2019-06-14 16:00:00 25.2 23 Oeste 41 Sudoeste 0 -- -- 54
2019-06-14 15:00:00 24.3 28 Sudoeste 40 Sudoeste 0 -- -- 59
2019-06-14 14:00:00 22.7 30 Oeste 47 Oeste 0 -- -- 66
2019-06-14 13:00:00 21.8 28 Oeste 49 Sudoeste 0 -- -- 71
2019-06-14 12:00:00 20.9 29 Oeste 48 Oeste 0 -- -- 77
2019-06-14 11:00:00 21.7 31 Oeste 48 Oeste 0 -- -- 74
2019-06-14 10:00:00 22.9 28 Sudoeste 40 Sudoeste 0 -- -- 72
2019-06-14 09:00:00 22.2 15 Oeste 37 Sudoeste 0 -- -- 73
2019-06-14 08:00:00 21 9 Sur 17 Sudoeste 0 -- -- 79
2019-06-14 07:00:00 19.8 6 Oeste 14 Nordeste 0 -- -- 83
2019-06-14 06:00:00 20 9 Nordeste 23 Nordeste 0 -- -- 82
2019-06-14 05:00:00 20.2 15 Nordeste 28 Nordeste 0 -- -- 80
2019-06-14 04:00:00 20.3 16 Nordeste 33 Nordeste 0 -- -- 79
2019-06-14 03:00:00 20.3 16 Nordeste 33 Nordeste 0 -- -- 76
2019-06-14 02:00:00 20.4 22 Nordeste 32 Nordeste 0 -- -- 74
2019-06-14 01:00:00 20 18 Nordeste 32 Nordeste 0 -- -- 81
2019-06-14 00:00:00 20 19 Nordeste 30 Nordeste 0 -- -- 81
2019-06-13 23:00:00 20.2 17 Nordeste 33 Nordeste 0 -- -- 79
2019-06-13 22:00:00 20.4 16 Nordeste 33 Nordeste 0 -- -- 78
2019-06-13 21:00:00 20.9 21 Nordeste 33 Nordeste 0 -- -- 74
2019-06-13 20:00:00 22.7 23 Nordeste 41 Nordeste 0 -- -- 65
2019-06-13 19:00:00 24.7 22 Nordeste 41 Nordeste 0 -- -- 57
2019-06-13 18:00:00 25 24 Nordeste 41 Nordeste 0 -- -- 53
2019-06-13 17:00:00 25.8 23 Nordeste 41 Nordeste 0 -- -- 46
2019-06-13 16:00:00 25.6 24 Nordeste 38 Nordeste 0 -- -- 45
2019-06-13 15:00:00 26.5 22 Nordeste 39 Nordeste 0 -- -- 43
2019-06-13 14:00:00 26.1 20 Nordeste 33 Nordeste 0 -- -- 48
2019-06-13 13:00:00 24.8 16 Nordeste 31 Nordeste 0 -- -- 50
2019-06-13 12:00:00 24.2 17 Nordeste 35 Este 0 -- -- 52
2019-06-13 11:00:00 23.4 19 Este 37 Nordeste 0 -- -- 52
2019-06-13 10:00:00 21.4 17 Nordeste 34 Nordeste 0 -- -- 57
2019-06-13 09:00:00 19.3 19 Nordeste 31 Nordeste 0 -- -- 75
2019-06-13 08:00:00 18.2 15 Nordeste 26 Nordeste 0 -- -- 76
2019-06-13 07:00:00 14.2 5 Nordeste 9 Nordeste 0 -- -- 84
2019-06-13 06:00:00 14.2 4 Nordeste 11 Norte 0 -- -- 84
2019-06-13 05:00:00 13.4 5 Norte 9 Noroeste 0 -- -- 87
2019-06-13 04:00:00 13.5 4 Norte 9 Norte 0 -- -- 87
2019-06-13 03:00:00 13.1 6 Noroeste 8 Norte 0 -- -- 88
2019-06-13 02:00:00 14.1 3 Nordeste 6 Norte 0 -- -- 85
2019-06-13 01:00:00 15.1 3 Norte 7 Norte 0 -- -- 82
2019-06-13 00:00:00 16.2 4 Nordeste 11 Norte 0 -- -- 79
2019-06-12 23:00:00 16.6 4 Nordeste 13 Este 0 -- -- 77
2019-06-12 22:00:00 17.5 7 Este 18 Este 0 -- -- 71
2019-06-12 21:00:00 19.1 10 Este 19 Este 0 -- -- 65
2019-06-12 20:00:00 20.6 10 Nordeste 21 Nordeste 0 -- -- 60
2019-06-12 19:00:00 23.3 11 Nordeste 23 Sudeste 0 -- -- 52
2019-06-12 18:00:00 22.9 13 Este 26 Nordeste 0 -- -- 52
2019-06-12 17:00:00 23.7 13 Este 26 Este 0 -- -- 50
2019-06-12 16:00:00 24.1 13 Nordeste 28 Nordeste 0 -- -- 49
2019-06-12 15:00:00 22.3 13 Este 34 Este 0 -- -- 53
2019-06-12 14:00:00 22.1 12 Este 23 Este 0 -- -- 54
2019-06-12 13:00:00 22.3 10 Este -- -- -- -- -- 54
2019-06-12 12:00:00 -- -- -- -- -- -- -- -- --
2019-06-12 11:00:00 -- 4 Nordeste 16 Nordeste 0 -- -- --
2019-06-12 10:00:00 18.6 8 Nordeste 20 Nordeste 0 -- -- 66
2019-06-12 09:00:00 17.2 10 Nordeste 20 Nordeste 0 -- -- 74
2019-06-12 08:00:00 16.3 10 Nordeste 19 Nordeste 0 -- -- 80
2019-06-12 07:00:00 15.8 11 Nordeste 17 Nordeste 0 -- -- 80
2019-06-12 06:00:00 15.7 9 Nordeste 20 Este 0 -- -- 80
2019-06-12 05:00:00 15.9 10 Este 19 Este 0 -- -- 79
2019-06-12 04:00:00 15.5 7 Nordeste 21 Nordeste 0 -- -- 81
2019-06-12 03:00:00 15.5 9 Este 27 Nordeste 0 -- -- 79
2019-06-12 02:00:00 15.7 15 Nordeste 29 Nordeste 0 -- -- 78
2019-06-12 01:00:00 15.7 17 Nordeste 37 Este 0 -- -- 81
2019-06-12 00:00:00 15.7 18 Nordeste 34 Este 0 -- -- 82
2019-06-11 23:00:00 17.2 17 Nordeste 32 Nordeste 0 -- -- 78
2019-06-11 22:00:00 17.6 21 Nordeste 38 Nordeste 0 -- -- 80
2019-06-11 21:00:00 18.8 24 Nordeste 39 Nordeste 0 -- -- 77
2019-06-11 20:00:00 22.7 10 Este 19 Este 0 -- -- 62
2019-06-11 19:00:00 24.6 10 Sudoeste 22 Sudoeste 0 -- -- 51
2019-06-11 18:00:00 24.7 13 Sur 24 Sudoeste 0 -- -- 53
2019-06-11 17:00:00 24.9 13 Sur 29 Sudoeste 0 -- -- 52
2019-06-11 16:00:00 24.4 17 Sudoeste 29 Sudoeste 0 -- -- 56
2019-06-11 15:00:00 25.1 13 Sudoeste 28 Sur 0 -- -- 51
2019-06-11 14:00:00 23.7 12 Sudeste 24 Sur 0 -- -- 56
2019-06-11 13:00:00 22.8 17 Sudeste 28 Sudeste 0 -- -- 61
2019-06-11 12:00:00 22.2 7 Sudeste 20 Sudeste 0 -- -- 61
2019-06-11 11:00:00 21.6 3 Sudeste 15 Este 0 -- -- 62
2019-06-11 10:00:00 20.5 4 Sur 13 Sudeste 0 -- -- 68
2019-06-11 09:00:00 19.4 4 Nordeste 14 Este 0 -- -- 75
2019-06-11 08:00:00 17.9 4 Nordeste 8 Nordeste 0 -- -- 87
2019-06-11 07:00:00 15.2 2 Norte 4 Nordeste 0 -- -- 88
2019-06-11 06:00:00 15.8 3 Nordeste 5 Norte 0 -- -- 88
2019-06-11 05:00:00 16.6 0 Calma 6 Sudeste 0 -- -- 85
2019-06-11 04:00:00 18 2 Sur -- -- 0 -- -- 79
2019-06-11 03:00:00 19.3 0 Calma 8 Sur 0 -- -- 76
2019-06-11 02:00:00 19.4 6 Sur 12 Sur 0 -- -- 77
2019-06-11 01:00:00 19.7 10 Sudeste 15 Sudeste 0 -- -- 75
2019-06-11 00:00:00 20.1 2 Este 7 Oeste 0 -- -- 66
2019-06-10 23:00:00 20.5 5 Oeste 10 Sudoeste 0 -- -- 75
2019-06-10 22:00:00 20.5 6 Sudoeste 17 Sudoeste 0 -- -- 77
2019-06-10 21:00:00 20.9 11 Oeste 21 Sudoeste 0 -- -- 76
2019-06-10 20:00:00 22.3 13 Sudoeste 21 Sudoeste 0 -- -- 70
2019-06-10 19:00:00 24 8 Sur 27 Este 0 -- -- 52
2019-06-10 18:00:00 25 13 Este 24 Este 0 -- -- 47
2019-06-10 17:00:00 25.4 8 Este 22 Este 0 -- -- 48
2019-06-10 16:00:00 26.5 10 Sur 30 Sudoeste 0 -- -- 54
2019-06-10 15:00:00 27.1 9 Este 25 Este 0 -- -- 45
2019-06-10 14:00:00 26.7 10 Este 22 Este 0 -- -- 47
2019-06-10 13:00:00 26.2 12 Este 29 Este 0 -- -- 49
2019-06-10 12:00:00 25 17 Nordeste 29 Nordeste 0 -- -- 54
2019-06-10 11:00:00 23.1 16 Nordeste 40 Nordeste 0 -- -- 61
2019-06-10 10:00:00 22.5 21 Nordeste 36 Nordeste 0 -- -- 64
2019-06-10 09:00:00 21.7 21 Nordeste 40 Nordeste 0 -- -- 65
2019-06-10 08:00:00 20.4 19 Nordeste 33 Nordeste 0 -- -- 69
2019-06-10 07:00:00 19 15 Nordeste 31 Nordeste 0 -- -- 74
2019-06-10 06:00:00 17.2 10 Nordeste 20 Nordeste 0 -- -- 86
2019-06-10 05:00:00 16.2 3 Este 10 Sudoeste 0 -- -- 89
2019-06-10 04:00:00 16.4 5 Oeste 7 Oeste 0 -- -- 87
2019-06-10 03:00:00 17.2 0 Calma 5 Norte 0 -- -- 83
2019-06-10 02:00:00 18.3 3 Norte 7 Nordeste 0 -- -- 82
2019-06-10 01:00:00 19 5 Nordeste 12 Este 0 -- -- 79
2019-06-10 00:00:00 20.1 4 Este 9 Nordeste 0 -- -- 74
2019-06-09 23:00:00 21.1 3 Nordeste 11 Este 0 -- -- 70
2019-06-09 22:00:00 22.4 6 Este 14 Nordeste 0 -- -- 66
2019-06-09 21:00:00 24 7 Este 18 Este 0 -- -- 60
2019-06-09 20:00:00 26.4 9 Este 23 Este 0 -- -- 54
2019-06-09 19:00:00 28 11 Este 21 Este 0 -- -- 51
2019-06-09 18:00:00 30 11 Este 25 Este 0 -- -- 45
2019-06-09 17:00:00 31.1 12 Este 22 Nordeste 0 -- -- 44
2019-06-09 16:00:00 29.8 6 Sur 14 Oeste 0 -- -- 44
2019-06-09 15:00:00 28.9 4 Oeste 14 Sudoeste 0 -- -- 47
2019-06-09 14:00:00 26.9 11 Sudoeste 24 Sudoeste 0 -- -- 50
2019-06-09 13:00:00 25.3 16 Sudoeste 24 Sudoeste 0 -- -- 56
2019-06-09 12:00:00 26.8 4 Sudoeste 14 Sur 0 -- -- 54
2019-06-09 11:00:00 24.7 6 Oeste 12 Oeste 0 -- -- 60
2019-06-09 10:00:00 23.9 5 Sudeste 13 Este 0 -- -- 64
2019-06-09 09:00:00 21.5 2 Sur 9 Nordeste 0 -- -- 68
2019-06-09 08:00:00 18.4 3 Nordeste 10 Nordeste 0 -- -- 77
2019-06-09 07:00:00 17.6 5 Nordeste 9 Nordeste 0 -- -- 75
2019-06-09 06:00:00 18.2 6 Nordeste 17 Nordeste 0 -- -- 72
2019-06-09 05:00:00 18.4 10 Nordeste 22 Nordeste 0 -- -- 69
2019-06-09 04:00:00 18.6 11 Nordeste 28 Nordeste 0 -- -- 64
2019-06-09 03:00:00 19.2 16 Nordeste 31 Nordeste 0 -- -- 58
2019-06-09 02:00:00 19.1 19 Nordeste 31 Nordeste 0 -- -- 57
2019-06-09 01:00:00 19.1 12 Nordeste 31 Nordeste 0 -- -- 55
2019-06-09 00:00:00 19.1 17 Nordeste 28 Nordeste 0 -- -- 53
2019-06-08 23:00:00 18.5 6 Nordeste 21 Nordeste 0 -- -- 58
2019-06-08 22:00:00 19 12 Nordeste 26 Nordeste 0 -- -- 59
2019-06-08 21:00:00 20.2 15 Nordeste 25 Nordeste 0 -- -- 51
2019-06-08 20:00:00 22 15 Nordeste 30 Nordeste 0 -- -- 48
2019-06-08 19:00:00 23.4 17 Nordeste 32 Nordeste 0 -- -- 45
2019-06-08 18:00:00 24 19 Nordeste 37 Nordeste 0 -- -- 43
2019-06-08 17:00:00 24 24 Nordeste 39 Nordeste 0 -- -- 42
2019-06-08 16:00:00 24.7 24 Este 42 Este 0 -- -- 38
2019-06-08 15:00:00 24.3 24 Nordeste 40 Este 0 -- -- 40
2019-06-08 14:00:00 24.1 22 Nordeste 51 Nordeste 0 -- -- 40
2019-06-08 13:00:00 23 27 Nordeste 49 Nordeste 0 -- -- 45
2019-06-08 12:00:00 23.4 28 Este 51 Este 0 -- -- 43
2019-06-08 11:00:00 22.5 27 Este 45 Nordeste 0 -- -- 47
2019-06-08 10:00:00 20.9 25 Nordeste 42 Nordeste 0 -- -- 54
2019-06-08 09:00:00 19.5 22 Nordeste 42 Nordeste 0 -- -- 58
2019-06-08 08:00:00 18.8 20 Nordeste 38 Nordeste 0 -- -- 59
2019-06-08 07:00:00 18.1 17 Nordeste 30 Nordeste 0 -- -- 63
2019-06-08 06:00:00 18 17 Nordeste 34 Nordeste 0 -- -- 64
2019-06-08 05:00:00 17.9 19 Nordeste 31 Nordeste 0 -- -- 75
2019-06-08 04:00:00 18.3 14 Nordeste 28 Nordeste 0 -- -- 75
2019-06-08 03:00:00 18.4 14 Nordeste 22 Nordeste 0 -- -- 82
2019-06-08 02:00:00 16.5 8 Este 16 Este 0 -- -- 80
2019-06-08 01:00:00 16.3 5 Noroeste 8 Noroeste 0 -- -- 71
2019-06-08 00:00:00 18.5 4 Norte 6 Nordeste 0 -- -- 67
2019-06-07 23:00:00 19.7 4 Nordeste 7 Nordeste 0 -- -- 62
2019-06-07 22:00:00 21 5 Este 15 Este 0 -- -- 57
2019-06-07 21:00:00 23.2 8 Este 21 Este 0 -- -- 53
2019-06-07 20:00:00 26.4 12 Este 20 Sur 0 -- -- 48
2019-06-07 19:00:00 27.5 14 Sudoeste 26 Sur 0 -- -- 37
2019-06-07 18:00:00 27.2 20 Sur 30 Sudoeste 0 -- -- 41
2019-06-07 17:00:00 28.1 18 Sudoeste 30 Sur 0 -- -- 36
2019-06-07 16:00:00 27.8 21 Sudoeste 33 Sur 0 -- -- 36
2019-06-07 15:00:00 27.5 23 Sur 41 Sur 0 -- -- 40
2019-06-07 14:00:00 26 27 Sur 37 Sur 0 -- -- 45
2019-06-07 13:00:00 26.8 22 Sudoeste 36 Sur 0 -- -- 47
2019-06-07 12:00:00 25.7 24 Sudoeste 34 Sudoeste 0 -- -- 49
2019-06-07 11:00:00 24.2 22 Sudoeste 35 Sudoeste 0 -- -- 52
2019-06-07 10:00:00 22.2 20 Sudoeste 28 Sudoeste 0 -- -- 63
2019-06-07 09:00:00 21.2 15 Sudoeste 20 Sudoeste 0 -- -- 60
2019-06-07 08:00:00 15.9 6 Sudoeste 11 Sudoeste 0 -- -- 80
2019-06-07 07:00:00 15 5 Sudoeste 8 Oeste 0 -- -- 74
2019-06-07 06:00:00 14.7 5 Sudoeste 8 Norte 0 -- -- 77
2019-06-07 05:00:00 15.4 4 Oeste 13 Sur 0 -- -- 78
2019-06-07 04:00:00 15.5 5 Noroeste 8 Noroeste 0 -- -- 79
2019-06-07 03:00:00 16.1 5 Noroeste 9 Oeste 0 -- -- 81
2019-06-07 02:00:00 17.1 3 Oeste 8 Sudeste 0 -- -- 82
2019-06-07 01:00:00 17.5 5 Norte 9 Noroeste 0 -- -- 82
2019-06-07 00:00:00 18.2 5 Norte 6 Nordeste 0 -- -- 80
2019-06-06 23:00:00 18.6 4 Este 9 Este 0 -- -- 79
2019-06-06 22:00:00 19.4 6 Sudeste 15 Sudeste 0 -- -- 75
2019-06-06 21:00:00 21.1 9 Sudeste 22 Sudeste 0 -- -- 68
2019-06-06 20:00:00 23.2 13 Sudeste 25 Sur 0 -- -- 60
2019-06-06 19:00:00 24.8 17 Sudeste 35 Sudeste 0 -- -- 46
2019-06-06 18:00:00 25.7 22 Sudeste 36 Sudeste 0 -- -- 42
2019-06-06 17:00:00 26.8 19 Sudeste 34 Sudeste 0 -- -- 36
2019-06-06 16:00:00 27.3 17 Sudeste 35 Sudeste 0 -- -- 35
2019-06-06 15:00:00 26.6 16 Sudeste 31 Sudeste 0 -- -- 39
2019-06-06 14:00:00 27 12 Sudeste 26 Este 0 -- -- 42
2019-06-06 13:00:00 25.8 5 Este 28 Sudeste 0 -- -- 40
2019-06-06 12:00:00 24.5 8 Sudeste 17 Sudeste 0 -- -- 46
2019-06-06 11:00:00 22.7 6 Sudeste 15 Este 0 -- -- 54
2019-06-06 10:00:00 21.1 7 Nordeste 17 Este 0 -- -- 61
2019-06-06 09:00:00 19.5 8 Nordeste 18 Este 0 -- -- 69
2019-06-06 08:00:00 18 10 Nordeste 16 Nordeste 0 -- -- 76
2019-06-06 07:00:00 16 8 Nordeste 12 Nordeste 0 -- -- 84
2019-06-06 06:00:00 16 6 Nordeste 14 Nordeste 0 -- -- 82
2019-06-06 05:00:00 16.7 9 Nordeste 18 Nordeste 0 -- -- 82
2019-06-06 04:00:00 16.9 6 Nordeste 14 Este 0 -- -- 77
2019-06-06 03:00:00 16.2 2 Sudoeste 8 Este 0 -- -- 57
2019-06-06 02:00:00 17.3 4 Noroeste 8 Norte 0 -- -- 53
2019-06-06 01:00:00 18.3 4 Oeste 12 Oeste 0 -- -- 48
2019-06-06 00:00:00 19.1 6 Oeste 13 Oeste 0 -- -- 45
2019-06-05 23:00:00 19.7 10 Noroeste 19 Oeste 0 -- -- 45
2019-06-05 22:00:00 20.1 8 Oeste 17 Noroeste 0 -- -- 49
2019-06-05 21:00:00 21.3 9 Noroeste 17 Noroeste 0 -- -- 56
2019-06-05 20:00:00 24.2 6 Noroeste 27 Noroeste 0 -- -- 42
2019-06-05 19:00:00 23.7 14 Oeste 45 Oeste 0 -- -- 39
2019-06-05 18:00:00 25.7 27 Oeste 50 Oeste 0 -- -- 25
2019-06-05 17:00:00 27.2 26 Oeste 49 Oeste 0 -- -- 25
2019-06-05 16:00:00 27.6 30 Oeste 44 Oeste 0 -- -- 23
2019-06-05 15:00:00 26.9 26 Sudoeste 41 Sudoeste 0 -- -- 53
2019-06-05 14:00:00 25.6 24 Sudoeste 39 Sudoeste 0 -- -- 59
2019-06-05 13:00:00 24.5 22 Sudoeste 36 Sudoeste 0 -- -- 62
2019-06-05 12:00:00 23.8 22 Oeste 37 Sudoeste 0 -- -- 62
2019-06-05 11:00:00 23.1 23 Sudoeste 40 Oeste 0 -- -- 64
2019-06-05 10:00:00 22.5 12 Sudoeste 19 Sudoeste 0 -- -- 66
2019-06-05 09:00:00 19.9 12 Sudoeste 17 Sudoeste 0 -- -- 79
2019-06-05 08:00:00 17.3 10 Sudoeste 17 Sudoeste 0 -- -- 91
2019-06-05 07:00:00 13.7 3 Sudoeste 7 Sudoeste 0 -- -- 92
2019-06-05 06:00:00 14 6 Sur 10 Sudoeste 0 -- -- 88
2019-06-05 05:00:00 13.9 9 Sudoeste 13 Sudoeste 0 -- -- 83
2019-06-05 04:00:00 13.3 4 Sudoeste 8 Sudoeste 0 -- -- 76
2019-06-05 03:00:00 14.4 3 Oeste 8 Oeste 0 -- -- 72
2019-06-05 02:00:00 15 0 Calma 5 Oeste 0 -- -- 78
2019-06-05 01:00:00 15.8 5 Sudoeste 8 Sudoeste 0 -- -- 77
2019-06-05 00:00:00 17.3 4 Sur 5 Sur 0 -- -- 71
2019-06-04 23:00:00 19.2 3 Sudoeste 9 Oeste 0 -- -- 66
2019-06-04 22:00:00 21.6 7 Sudoeste 10 Oeste 0 -- -- 60
2019-06-04 21:00:00 24.6 7 Sudoeste 14 Oeste 0 -- -- 50
2019-06-04 20:00:00 26.9 8 Oeste 24 Oeste 0 -- -- 43
2019-06-04 19:00:00 28.3 13 Sudoeste 28 Sur 0 -- -- 39
2019-06-04 18:00:00 29.6 13 Sudeste 28 Sur 0 -- -- 30
2019-06-04 17:00:00 30 15 Sudeste 27 Sudeste 0 -- -- 28
2019-06-04 16:00:00 30.3 15 Sudeste 30 Sudeste 0 -- -- 29
2019-06-04 15:00:00 30 14 Sudeste 27 Sur 0 -- -- 29
2019-06-04 14:00:00 29.5 8 Sur 21 Sur 0 -- -- 29
2019-06-04 13:00:00 28.7 12 Sudoeste 23 Sur 0 -- -- 31
2019-06-04 12:00:00 27.8 13 Sudoeste 22 Sur 0 -- -- 35
2019-06-04 11:00:00 26.6 10 Sur 17 Sudoeste 0 -- -- 34
2019-06-04 10:00:00 25.2 3 Oeste 10 Sur 0 -- -- 35
2019-06-04 09:00:00 22.7 2 Sur 6 Sur 0 -- -- 43
2019-06-04 08:00:00 16.8 0 Calma 4 Sudoeste 0 -- -- 58
2019-06-04 07:00:00 12.3 0 Calma 5 Sur 0 -- -- 69
2019-06-04 06:00:00 12.9 2 Oeste 6 Noroeste 0 -- -- 65
2019-06-04 05:00:00 13.4 5 Oeste 9 Oeste 0 -- -- 62
2019-06-04 04:00:00 13.9 7 Sudoeste 9 Sudoeste 0 -- -- 60
2019-06-04 03:00:00 15 7 Oeste 11 Oeste 0 -- -- 55
2019-06-04 02:00:00 14.2 5 Noroeste 6 Noroeste 0 -- -- 62
2019-06-04 01:00:00 15.6 2 Sudoeste 8 Noroeste 0 -- -- 60
2019-06-04 00:00:00 17.4 5 Oeste 10 Oeste 0 -- -- 56
2019-06-03 23:00:00 18.8 7 Oeste 10 Oeste 0 -- -- 58
2019-06-03 22:00:00 20.7 8 Oeste 14 Oeste 0 -- -- 54
2019-06-03 21:00:00 23.4 8 Oeste 18 Oeste 0 -- -- 42
2019-06-03 20:00:00 25.6 12 Oeste 25 Sudoeste 0 -- -- 36
2019-06-03 19:00:00 26.7 15 Oeste 24 Oeste 0 -- -- 35
2019-06-03 18:00:00 27.3 17 Oeste 28 Sudoeste 0 -- -- 37
2019-06-03 17:00:00 27.7 19 Oeste 33 Oeste 0 -- -- 35
2019-06-03 16:00:00 27.9 22 Oeste 36 Oeste 0 -- -- 36
2019-06-03 15:00:00 29.5 16 Sudoeste 32 Oeste 0 -- -- 33
2019-06-03 14:00:00 29.8 10 Sudoeste 25 Sudoeste 0 -- -- 29
2019-06-03 13:00:00 29.6 12 Este 23 Este 0 -- -- 27
2019-06-03 12:00:00 27.9 6 Oeste 17 Sudeste 0 -- -- 29
2019-06-03 11:00:00 26.8 4 Este 13 Sudoeste 0 -- -- 31
2019-06-03 10:00:00 24.8 6 Sur 11 Sur 0 -- -- 35
2019-06-03 09:00:00 21.9 6 Sudoeste 10 Sudoeste 0 -- -- 41
2019-06-03 08:00:00 17.3 3 Sudoeste 6 Sudoeste 0 -- -- 56
2019-06-03 07:00:00 11.7 5 Oeste 8 Sudoeste 0 -- -- 71
2019-06-03 06:00:00 11.6 6 Sudoeste 6 Sudoeste 0 -- -- 69
2019-06-03 05:00:00 11.9 4 Sudoeste 5 Sudoeste 0 -- -- 69
2019-06-03 04:00:00 12.7 3 Sudoeste 8 Noroeste 0 -- -- 66
2019-06-03 03:00:00 13.3 5 Sudoeste 7 Oeste 0 -- -- 65
2019-06-03 02:00:00 14.3 4 Oeste 7 Sudoeste 0 -- -- 62
2019-06-03 01:00:00 15.5 2 Oeste 9 Oeste 0 -- -- 59
2019-06-03 00:00:00 16.6 6 Oeste 10 Oeste 0 -- -- 58
2019-06-02 23:00:00 18.5 6 Oeste 12 Sudoeste 0 -- -- 59
2019-06-02 22:00:00 20.1 9 Oeste 14 Sudoeste 0 -- -- 56
2019-06-02 21:00:00 22.2 9 Oeste 23 Oeste 0 -- -- 48
2019-06-02 20:00:00 24.3 15 Sudoeste 26 Oeste 0 -- -- 44
2019-06-02 19:00:00 26.6 15 Oeste 24 Sudoeste 0 -- -- 36
2019-06-02 18:00:00 27.5 18 Oeste 28 Oeste 0 -- -- 34
2019-06-02 17:00:00 28.2 17 Oeste 28 Oeste 0 -- -- 33
2019-06-02 16:00:00 28.2 17 Oeste 32 Sudoeste 0 -- -- 36
2019-06-02 15:00:00 28.2 12 Sudoeste 29 Sudoeste 0 -- -- 37
2019-06-02 14:00:00 28.4 16 Sudoeste 29 Sudoeste 0 -- -- 36
2019-06-02 13:00:00 28 5 Norte 15 Sudeste 0 -- -- 33
2019-06-02 12:00:00 26.6 5 Norte 13 Norte 0 -- -- 32
2019-06-02 11:00:00 25.1 4 Nordeste 10 Este 0 -- -- 34
2019-06-02 10:00:00 23.4 3 Sudeste 8 Sur 0 -- -- 36
2019-06-02 09:00:00 20.2 3 Sur 8 Sudoeste 0 -- -- 51
2019-06-02 08:00:00 15.2 2 Sur 4 Sur 0 -- -- 65
2019-06-02 07:00:00 10.5 3 Sur 6 Noroeste 0 -- -- 79
2019-06-02 06:00:00 10.4 3 Oeste 5 Noroeste 0 -- -- 77
2019-06-02 05:00:00 10.8 6 Noroeste 6 Noroeste 0 -- -- 77
2019-06-02 04:00:00 12 3 Sudoeste 4 Sudoeste 0 -- -- 74
2019-06-02 03:00:00 12.5 4 Oeste 6 Sudoeste 0 -- -- 71
2019-06-02 02:00:00 13.8 0 Calma 5 Oeste 0 -- -- 69
2019-06-02 01:00:00 15.2 5 Oeste 7 Sudoeste 0 -- -- 65
2019-06-02 00:00:00 16.9 3 Oeste 10 Oeste 0 -- -- 64
2019-06-01 23:00:00 18.2 7 Oeste 9 Oeste 0 -- -- 66
2019-06-01 22:00:00 19.9 5 Sudoeste 12 Sudoeste 0 -- -- 59
2019-06-01 21:00:00 22.1 9 Oeste 18 Sudoeste 0 -- -- 47
2019-06-01 20:00:00 24 13 Oeste 22 Sudoeste 0 -- -- 42
2019-06-01 19:00:00 24.9 15 Sudoeste 22 Sudoeste 0 -- -- 43
2019-06-01 18:00:00 25.8 13 Sudoeste 30 Sudoeste 0 -- -- 42
2019-06-01 17:00:00 26.8 18 Sudoeste 28 Sudoeste 0 -- -- 40
2019-06-01 16:00:00 27.7 9 Sudeste 22 Sudoeste 0 -- -- 38
2019-06-01 15:00:00 27.2 4 Sudoeste 29 Nordeste 0 -- -- 36
2019-06-01 14:00:00 27.9 7 Nordeste 18 Este 0 -- -- 33
2019-06-01 13:00:00 27.3 10 Este 21 Este 0 -- -- 34
2019-06-01 12:00:00 25.7 8 Nordeste 16 Nordeste 0 -- -- 37
2019-06-01 11:00:00 24.6 5 Este 17 Este 0 -- -- 39
2019-06-01 10:00:00 22.4 6 Sudeste 11 Sudeste 0 -- -- 48
2019-06-01 09:00:00 20.4 5 Sudeste 9 Este 0 -- -- 60
2019-06-01 08:00:00 15.3 0 Calma 4 Sudoeste 0 -- -- 79
2019-06-01 07:00:00 11.3 3 Norte 6 Noroeste 0 -- -- 87
2019-06-01 06:00:00 11.1 3 Noroeste 5 Sudoeste 0 -- -- 83
2019-06-01 05:00:00 11.8 4 Oeste 6 Sudoeste 0 -- -- 83
2019-06-01 04:00:00 12.5 3 Noroeste 6 Noroeste 0 -- -- 82
2019-06-01 03:00:00 12.8 0 Calma 2 Noroeste 0 -- -- 78
2019-06-01 02:00:00 13.8 0 Calma 5 Sudoeste 0 -- -- 76
2019-06-01 01:00:00 14.5 3 Noroeste 5 Nordeste 0 -- -- 71
2019-06-01 00:00:00 16.2 0 Calma 8 Noroeste 0 -- -- 68
2019-05-31 23:00:00 17.6 6 Noroeste 9 Oeste 0 -- -- 65
2019-05-31 22:00:00 19.3 6 Oeste 10 Oeste 0 -- -- 56
2019-05-31 21:00:00 21.9 3 Noroeste 13 Sudoeste 0 -- -- 49
2019-05-31 20:00:00 23.7 8 Sudeste 14 Este 0 -- -- 44
2019-05-31 19:00:00 25.3 6 Este 21 Oeste 0 -- -- 45
2019-05-31 18:00:00 25.4 15 Oeste 30 Sudoeste 0 -- -- 38
2019-05-31 17:00:00 25.8 13 Sudoeste 26 Oeste 0 -- -- 38
2019-05-31 16:00:00 25 15 Sudoeste 31 Sudoeste 0 -- -- 39
2019-05-31 15:00:00 25.7 14 Oeste 30 Sudoeste 0 -- -- 38
2019-05-31 14:00:00 25.5 8 Sudoeste 25 Este 0 -- -- 39
2019-05-31 13:00:00 26.2 12 Este 24 Este 0 -- -- 38
2019-05-31 12:00:00 25.7 11 Este 26 Este 0 -- -- 38
2019-05-31 11:00:00 24.2 10 Nordeste 22 Nordeste 0 -- -- 42
2019-05-31 10:00:00 22 4 Sur 9 Sudeste 0 -- -- 46
2019-05-31 09:00:00 19.6 2 Sur 5 Sur 0 -- -- 57
2019-05-31 08:00:00 14.7 0 Calma 4 Oeste 0 -- -- 76
2019-05-31 07:00:00 10.6 2 Sur 7 Sudeste 0 -- -- 86
2019-05-31 06:00:00 10.7 0 Calma 5 Oeste 0 -- -- 84
2019-05-31 05:00:00 10.8 0 Calma 4 Sudoeste 0 -- -- 82
2019-05-31 04:00:00 11.7 3 Oeste 5 Sudoeste 0 -- -- 80
2019-05-31 03:00:00 12.5 3 Oeste 5 Sudoeste 0 -- -- 79
2019-05-31 02:00:00 13.5 4 Noroeste 8 Oeste 0 -- -- 77
2019-05-31 01:00:00 14 3 Norte 4 Noroeste 0 -- -- 74
2019-05-31 00:00:00 15.3 0 Calma 6 Norte 0 -- -- 71
2019-05-30 23:00:00 16.6 3 Norte 6 Norte 0 -- -- 64
2019-05-30 22:00:00 18.3 4 Sur 13 Este 0 -- -- 61
2019-05-30 21:00:00 20.7 10 Este 21 Sudeste 0 -- -- 55
2019-05-30 20:00:00 23.2 13 Este 23 Este 0 -- -- 41
2019-05-30 19:00:00 24 15 Este 29 Este 0 -- -- 36
2019-05-30 18:00:00 25 13 Este 31 Sudeste 0 -- -- 36
2019-05-30 17:00:00 24.8 17 Sudeste 34 Sur 0 -- -- 41
2019-05-30 16:00:00 24.9 16 Sur 36 Sur 0 -- -- 35
2019-05-30 15:00:00 24.7 22 Sur 32 Sur 0 -- -- 37
2019-05-30 14:00:00 24.7 12 Noroeste 34 Nordeste 0 -- -- 36
2019-05-30 13:00:00 24.2 13 Noroeste 26 Noroeste 0 -- -- 37
2019-05-30 12:00:00 22.9 18 Noroeste 25 Noroeste 0 -- -- 40
2019-05-30 11:00:00 21.4 11 Sudoeste 20 Sudoeste 0 -- -- 48
2019-05-30 10:00:00 20.7 9 Sudoeste 17 Sudoeste 0 -- -- 45
2019-05-30 09:00:00 18.8 10 Sudoeste 14 Oeste 0 -- -- 55
2019-05-30 08:00:00 15.1 9 Oeste 13 Sudoeste 0 -- -- 70
2019-05-30 07:00:00 11 6 Oeste 9 Oeste 0 -- -- 85
2019-05-30 06:00:00 11 5 Oeste 8 Oeste 0 -- -- 87
2019-05-30 05:00:00 10.9 4 Oeste 8 Sudoeste 0 -- -- 88
2019-05-30 04:00:00 11.2 4 Oeste 9 Oeste 0 -- -- 86
2019-05-30 03:00:00 11.6 5 Oeste 8 Oeste 0 -- -- 84
2019-05-30 02:00:00 12.1 6 Sudoeste 8 Oeste 0 -- -- 82
2019-05-30 01:00:00 12.9 6 Oeste 10 Oeste 0 -- -- 81
2019-05-30 00:00:00 13.7 4 Oeste 6 Noroeste 0 -- -- 78
2019-05-29 23:00:00 15.1 4 Noroeste 8 Oeste 0 -- -- 75
2019-05-29 22:00:00 16.4 6 Oeste 14 Sudoeste 0 -- -- 71
2019-05-29 21:00:00 17.6 9 Sudoeste 18 Sudoeste 0 -- -- 65
2019-05-29 20:00:00 19.2 14 Sudoeste 22 Sudoeste 0 -- -- 60
2019-05-29 19:00:00 20.5 17 Sudoeste 29 Oeste 0 -- -- 56
2019-05-29 18:00:00 20.7 18 Sudoeste 32 Sudoeste 0 -- -- 54
2019-05-29 17:00:00 21.3 21 Sudoeste 36 Sudoeste 0 -- -- 51
2019-05-29 16:00:00 21.5 19 Oeste 32 Sudoeste 0 -- -- 47
2019-05-29 15:00:00 22.1 19 Sudoeste 32 Sudoeste 0 -- -- 46
2019-05-29 14:00:00 20.5 17 Sur 28 Sur 0 -- -- 56
2019-05-29 13:00:00 20.7 13 Sur 23 Sur 0 -- -- 55
2019-05-29 12:00:00 20.5 12 Sudeste 19 Sudeste 0 -- -- 55
2019-05-29 11:00:00 20 7 Este 18 Nordeste 0 -- -- 58
2019-05-29 10:00:00 18.3 6 Este 16 Sudeste 0 -- -- 67
2019-05-29 09:00:00 16.9 8 Este 16 Nordeste 0 -- -- 76
2019-05-29 08:00:00 15.1 10 Este 18 Nordeste 0 -- -- 86
2019-05-29 07:00:00 12.4 5 Nordeste 9 Nordeste 0 -- -- 86
2019-05-29 06:00:00 12.8 5 Nordeste 8 Oeste 0 -- -- 82
2019-05-29 05:00:00 14.1 5 Sudoeste 8 Sudoeste 0 -- -- 78
2019-05-29 04:00:00 14 5 Sudoeste 7 Oeste 0 -- -- 78
2019-05-29 03:00:00 13 3 Sudoeste 7 Sudoeste 0 -- -- 80
2019-05-29 02:00:00 13.2 4 Oeste 6 Noroeste 0 -- -- 79
2019-05-29 01:00:00 14.2 5 Noroeste 9 Noroeste 0 -- -- 75
2019-05-29 00:00:00 15.4 6 Noroeste 8 Norte 0 -- -- 74
2019-05-28 23:00:00 16.5 5 Nordeste 22 Nordeste 0 -- -- 74
2019-05-28 22:00:00 17.2 11 Nordeste 25 Nordeste 0 -- -- 72
2019-05-28 21:00:00 17.5 14 Nordeste 30 Nordeste 0 -- -- 70
2019-05-28 20:00:00 18.6 22 Nordeste 40 Este 0 -- -- 67
2019-05-28 19:00:00 20 23 Nordeste 36 Nordeste 0 -- -- 61
2019-05-28 18:00:00 22 14 Este 32 Nordeste 0 -- -- 59
2019-05-28 17:00:00 22.6 16 Nordeste 30 Este 0 -- -- 59
2019-05-28 16:00:00 23.2 15 Este 27 Este 0 -- -- 60
2019-05-28 15:00:00 23.1 12 Este 21 Sudeste 0 -- -- 59
2019-05-28 14:00:00 25.1 16 Sudoeste 32 Sudoeste 0 -- -- 43
2019-05-28 13:00:00 24.9 12 Sudoeste 23 Sudoeste 0 -- -- 44
2019-05-28 12:00:00 23.1 8 Sudoeste 15 Sudoeste 0 -- -- 54
2019-05-28 11:00:00 21.6 10 Sudoeste 19 Sudoeste 0 -- -- 66
2019-05-28 10:00:00 20.1 10 Oeste 22 Sudoeste 0 -- -- 74
2019-05-28 09:00:00 17.8 4 Sudoeste 8 Sudoeste 0 -- -- 87
2019-05-28 08:00:00 15.6 3 Oeste 4 Oeste 0 -- -- 90
2019-05-28 07:00:00 13.9 2 Sur 5 Sur 0 -- -- 91
2019-05-28 06:00:00 13.4 4 Noroeste 6 Noroeste 0 -- -- 90
2019-05-28 05:00:00 14.1 3 Norte 6 Norte 0 -- -- 89
2019-05-28 04:00:00 14.6 3 Norte 6 Este 0 -- -- 89
2019-05-28 03:00:00 14.5 0 Calma 5 Sudoeste 0 -- -- 89
2019-05-28 02:00:00 15 2 Sudoeste 10 Sudoeste 0 -- -- 87
2019-05-28 01:00:00 15.1 6 Oeste 9 Sudoeste 0 -- -- 84
2019-05-28 00:00:00 16.2 5 Oeste 6 Oeste 0 -- -- 80
2019-05-27 23:00:00 16.7 0 Calma 6 Este 0 -- -- 78
2019-05-27 22:00:00 17.9 4 Este 10 Este 0 -- -- 72
2019-05-27 21:00:00 20 7 Este 16 Sur 0 -- -- 65
2019-05-27 20:00:00 22.3 8 Sur 24 Sudoeste 0 -- -- 53
2019-05-27 19:00:00 23.3 19 Sudoeste 30 Sudoeste 0 -- -- 48
2019-05-27 18:00:00 24.1 19 Sudoeste 32 Sudoeste 0 -- -- 47
2019-05-27 17:00:00 25.2 24 Sudoeste 37 Sudoeste 0 -- -- 43
2019-05-27 16:00:00 24.2 21 Sudoeste 36 Sudoeste 0 -- -- 42
2019-05-27 15:00:00 24.9 13 Sudoeste 24 Sur 0 -- -- 40
2019-05-27 14:00:00 24.6 10 Sur 22 Sudoeste 0 -- -- 39
2019-05-27 13:00:00 24.4 14 Sur 21 Sur 0 -- -- 41
2019-05-27 12:00:00 23.8 12 Sur 19 Sur 0 -- -- 41
2019-05-27 11:00:00 23.9 9 Sur 13 Oeste 0 -- -- 41
2019-05-27 10:00:00 22.9 7 Oeste 12 Oeste 0 -- -- 42
2019-05-27 09:00:00 21.8 4 Norte 15 Noroeste 0 -- -- 47
2019-05-27 08:00:00 19.9 12 Noroeste 21 Noroeste 0 -- -- 49
2019-05-27 07:00:00 17.8 9 Noroeste 23 Noroeste 0 -- -- 52
2019-05-27 06:00:00 17.5 13 Noroeste 21 Noroeste 0 -- -- 54
2019-05-27 05:00:00 16.4 9 Oeste 16 Oeste 0 -- -- 57
2019-05-27 04:00:00 16.4 11 Oeste 19 Oeste 0 -- -- 58
2019-05-27 03:00:00 15.3 10 Sudoeste 19 Oeste 0 -- -- 64
2019-05-27 02:00:00 14.7 10 Oeste 15 Oeste 0 -- -- 67
2019-05-27 01:00:00 15.7 10 Oeste 17 Sudoeste 0 -- -- 64
2019-05-27 00:00:00 15 9 Sudoeste 14 Sudoeste 0 -- -- 70
2019-05-26 23:00:00 15.8 8 Oeste 12 Oeste 0 -- -- 66
2019-05-26 22:00:00 16.3 7 Oeste 9 Noroeste 0 -- -- 63
2019-05-26 21:00:00 19.4 0 Calma 12 Nordeste 0 -- -- 50
2019-05-26 20:00:00 20.6 8 Nordeste 23 Nordeste 0 -- -- 47
2019-05-26 19:00:00 21.4 10 Nordeste 21 Nordeste 0 -- -- 44
2019-05-26 18:00:00 21.5 12 Nordeste 28 Norte 0 -- -- 45
2019-05-26 17:00:00 22.8 8 Oeste 16 Oeste 0 -- -- 44
2019-05-26 16:00:00 21.7 6 Este 21 Nordeste 0 -- -- 48
2019-05-26 15:00:00 21.2 12 Nordeste 30 Nordeste 0 -- -- 44
2019-05-26 14:00:00 22.9 12 Nordeste 27 Nordeste 0 -- -- 43
2019-05-26 13:00:00 23.8 13 Nordeste 30 Nordeste 0 -- -- 43
2019-05-26 12:00:00 24.4 19 Nordeste 36 Nordeste 0 -- -- 41
2019-05-26 11:00:00 22.4 15 Nordeste 33 Nordeste 0 -- -- 43
2019-05-26 10:00:00 22.8 12 Nordeste 26 Norte 0 -- -- 46
2019-05-26 09:00:00 21.5 5 Este 26 Noroeste 0 -- -- 57
2019-05-26 08:00:00 18.8 10 Noroeste 20 Noroeste 0 -- -- 65
2019-05-26 07:00:00 16.3 2 Sudoeste 21 Oeste 0 -- -- 73
2019-05-26 06:00:00 16.6 12 Oeste 23 Oeste 0 -- -- 71
2019-05-26 05:00:00 17.1 12 Oeste 27 Noroeste 0 -- -- 66
2019-05-26 04:00:00 15.2 12 Oeste 22 Oeste 0 -- -- 85
2019-05-26 03:00:00 15.8 8 Sudoeste 15 Oeste 0 -- -- 81
2019-05-26 02:00:00 15.7 4 Oeste 9 Sur 0 -- -- 84
2019-05-26 01:00:00 15.9 4 Sur 6 Sur 0 -- -- 85
2019-05-26 00:00:00 16 3 Sudoeste 5 Sudoeste 0 -- -- 82
2019-05-25 23:00:00 16.3 4 Sudoeste 6 Sudoeste 0 -- -- 81
2019-05-25 22:00:00 16.8 2 Norte 14 Nordeste 0 -- -- 77
2019-05-25 21:00:00 17.2 7 Nordeste 22 Nordeste 0 -- -- 75
2019-05-25 20:00:00 17.8 13 Nordeste 26 Este 0 -- -- 72
2019-05-25 19:00:00 18.3 11 Nordeste 30 Nordeste 0 -- -- 71
2019-05-25 18:00:00 19.3 14 Nordeste 31 Nordeste 0 -- -- 68
2019-05-25 17:00:00 18.3 15 Nordeste 28 Nordeste 0 -- -- 72
2019-05-25 16:00:00 17.7 15 Nordeste 26 Nordeste 0 -- -- 77
2019-05-25 15:00:00 17.3 13 Nordeste 27 Nordeste 0 -- -- 83
2019-05-25 14:00:00 17.1 12 Nordeste 24 Este 0.2 -- -- 90
2019-05-25 13:00:00 16.9 12 Nordeste 22 Nordeste 0 -- -- 85
2019-05-25 12:00:00 17.1 13 Nordeste 23 Nordeste 0 -- -- 81
2019-05-25 11:00:00 15.6 12 Nordeste 24 Nordeste 0 -- -- 89
2019-05-25 10:00:00 15.9 13 Nordeste 22 Este 0 -- -- 88
2019-05-25 09:00:00 15.4 10 Nordeste 17 Nordeste 0 -- -- 90
2019-05-25 08:00:00 14.8 6 Nordeste 15 Nordeste 0 -- -- 92
2019-05-25 07:00:00 14.5 6 Nordeste 14 Nordeste 0 -- -- 92
2019-05-25 06:00:00 14.7 8 Nordeste 12 Nordeste 0 -- -- 92
2019-05-25 05:00:00 14.6 4 Norte 8 Nordeste 0 -- -- 92
2019-05-25 04:00:00 14.8 2 Sudeste 6 Norte 0 -- -- 90
2019-05-25 03:00:00 14.6 2 Noroeste 5 Sudoeste 0 -- -- 90
2019-05-25 02:00:00 14.6 0 Calma 8 Norte 0 -- -- 88
2019-05-25 01:00:00 14.7 5 Norte 8 Norte 0 -- -- 86
2019-05-25 00:00:00 14.5 6 Nordeste 12 Nordeste 0 -- -- 84
2019-05-24 23:00:00 14.7 5 Nordeste 9 Nordeste 0 -- -- 87
2019-05-24 22:00:00 14.7 4 Nordeste 8 Norte 0 -- -- 85
2019-05-24 21:00:00 15.1 4 Nordeste 8 Nordeste 0 -- -- 81
2019-05-24 20:00:00 15.2 4 Nordeste 14 Nordeste 0 -- -- 78
2019-05-24 19:00:00 15.5 7 Nordeste 14 Nordeste 0.2 -- -- 81
2019-05-24 18:00:00 15.5 6 Norte 9 Nordeste 0.4 -- -- 75
2019-05-24 17:00:00 16.5 3 Noroeste 11 Noroeste 0.2 -- -- 75
2019-05-24 16:00:00 17.7 4 Noroeste 7 Noroeste 0.2 -- -- 65
2019-05-24 15:00:00 18.5 4 Oeste 10 Noroeste 0.2 -- -- 61
2019-05-24 14:00:00 18.4 9 Noroeste 12 Noroeste 0 -- -- 65
2019-05-24 13:00:00 17 7 Norte 13 Noroeste 0 -- -- 76
2019-05-24 12:00:00 21.5 5 Noroeste 9 Sudoeste 0 -- -- 36
2019-05-24 11:00:00 20.8 6 Oeste 10 Sudoeste 0 -- -- 42
2019-05-24 10:00:00 19.7 5 Oeste 7 Este 0 -- -- 56
2019-05-24 09:00:00 19.1 3 Sudeste 4 Sur 0 -- -- 61
2019-05-24 08:00:00 17.4 2 Noroeste 4 Noroeste 0 -- -- 60
2019-05-24 07:00:00 15 0 Calma 7 Noroeste 0 -- -- 75
2019-05-24 06:00:00 14.9 7 Noroeste 10 Noroeste 0 -- -- 70
2019-05-24 05:00:00 14.9 2 Nordeste 6 Oeste 0 -- -- 54
2019-05-24 04:00:00 14.8 5 Sudoeste 9 Sudoeste 0 -- -- 50
2019-05-24 03:00:00 14.6 5 Oeste 9 Sudoeste 0 -- -- 52
2019-05-24 02:00:00 15.2 4 Oeste 7 Sudoeste 0 -- -- 50
2019-05-24 01:00:00 15.3 5 Noroeste 9 Oeste 0 -- -- 49
2019-05-24 00:00:00 16.4 8 Oeste 10 Oeste 0 -- -- 48
2019-05-23 23:00:00 17.1 5 Sudoeste 8 Oeste 0 -- -- 52
2019-05-23 22:00:00 18.2 6 Oeste 10 Oeste 0 -- -- 49
2019-05-23 21:00:00 20.1 8 Oeste 22 Sudoeste 0 -- -- 41
2019-05-23 20:00:00 21.7 12 Oeste 26 Oeste 0 -- -- 36
2019-05-23 19:00:00 22.7 16 Oeste 28 Oeste 0 -- -- 31
2019-05-23 18:00:00 24.2 20 Sudoeste 30 Sudoeste 0 -- -- 26
2019-05-23 17:00:00 25.8 19 Oeste 32 Oeste 0 -- -- 24
2019-05-23 16:00:00 26.4 19 Sudoeste 30 Oeste 0 -- -- 24
2019-05-23 15:00:00 26.4 20 Sudoeste 31 Sudoeste 0 -- -- 25
2019-05-23 14:00:00 26.2 20 Sudoeste 31 Sudoeste 0 -- -- 21
2019-05-23 13:00:00 25.7 17 Sudoeste 27 Oeste 0 -- -- 23
2019-05-23 12:00:00 25 17 Sudoeste 26 Sudoeste 0 -- -- 27
2019-05-23 11:00:00 24.2 16 Sudoeste 24 Sudoeste 0 -- -- 30
2019-05-23 10:00:00 22.5 13 Oeste 21 Sudoeste 0 -- -- 33
2019-05-23 09:00:00 20.4 13 Oeste 18 Oeste 0 -- -- 38
2019-05-23 08:00:00 15.9 7 Sudoeste 13 Oeste 0 -- -- 70
2019-05-23 07:00:00 11.7 6 Sudoeste 12 Oeste 0 -- -- 75
2019-05-23 06:00:00 10.9 10 Oeste 12 Oeste 0 -- -- 77
2019-05-23 05:00:00 11.3 7 Sudoeste 12 Oeste 0 -- -- 80
2019-05-23 04:00:00 12.5 5 Sudoeste 12 Oeste 0 -- -- 81
2019-05-23 03:00:00 13 6 Sudoeste 10 Sudoeste 0 -- -- 79
2019-05-23 02:00:00 13.5 8 Sudoeste 10 Sudoeste 0 -- -- 82
2019-05-23 01:00:00 15.1 8 Oeste 13 Oeste 0 -- -- 79
2019-05-23 00:00:00 15.1 4 Oeste 9 Oeste 0 -- -- 75
2019-05-22 23:00:00 16.5 8 Oeste 14 Oeste 0 -- -- 70
2019-05-22 22:00:00 17.8 10 Oeste 19 Oeste 0 -- -- 65
2019-05-22 21:00:00 19.6 13 Oeste 21 Oeste 0 -- -- 48
2019-05-22 20:00:00 22.5 9 Oeste 24 Sudoeste 0 -- -- 38
2019-05-22 19:00:00 23.9 14 Oeste 25 Sudoeste 0 -- -- 29
2019-05-22 18:00:00 24.6 17 Sudoeste 26 Sudoeste 0 -- -- 28
2019-05-22 17:00:00 24.9 19 Sudoeste 33 Sudoeste 0 -- -- 32
2019-05-22 16:00:00 26.7 12 Sudoeste 26 Sudoeste 0 -- -- 32
2019-05-22 15:00:00 26.2 12 Este 28 Noroeste 0 -- -- 32
2019-05-22 14:00:00 26.2 9 Oeste 26 Sur 0 -- -- 28
2019-05-22 13:00:00 25.3 7 Nordeste 17 Este 0 -- -- 31
2019-05-22 12:00:00 24.1 6 Nordeste 14 Nordeste 0 -- -- 35
2019-05-22 11:00:00 22.1 4 Este 11 Este 0 -- -- 39
2019-05-22 10:00:00 19.9 3 Sur 8 Sur 0 -- -- 49
2019-05-22 09:00:00 18 2 Este 5 Sudeste 0 -- -- 57
2019-05-22 08:00:00 14.1 4 Sudoeste 5 Sudoeste 0 -- -- 70
2019-05-22 07:00:00 10.3 0 Calma 4 Sudoeste 0 -- -- 82
2019-05-22 06:00:00 9.5 3 Oeste 5 Sudoeste 0 -- -- 80
2019-05-22 05:00:00 10 0 Calma 7 Oeste 0 -- -- 78
2019-05-22 04:00:00 10.1 5 Oeste 8 Oeste 0 -- -- 78
2019-05-22 03:00:00 10.9 0 Calma 3 Noroeste 0 -- -- 75
2019-05-22 02:00:00 12.4 0 Calma 10 Oeste 0 -- -- 69
2019-05-22 01:00:00 14.2 10 Sudoeste 13 Sudoeste 0 -- -- 67
2019-05-22 00:00:00 15.9 7 Oeste 10 Oeste 0 -- -- 73
2019-05-21 23:00:00 17 6 Sudoeste 10 Oeste 0 -- -- 66
2019-05-21 22:00:00 18 6 Sudoeste 12 Oeste 0 -- -- 58
2019-05-21 21:00:00 19 6 Oeste 21 Sudoeste 0 -- -- 48
2019-05-21 20:00:00 21 10 Sudeste 21 Sudoeste 0 -- -- 40
2019-05-21 19:00:00 22.2 2 Nordeste 8 Sudoeste 0 -- -- 36
2019-05-21 18:00:00 21.9 4 Oeste 7 Sudoeste 0 -- -- 33
2019-05-21 17:00:00 20.9 4 Oeste 14 Sudoeste 0 -- -- 40
2019-05-21 16:00:00 20.1 11 Sur 27 Sudoeste 0 -- -- 53
2019-05-21 15:00:00 21 17 Sudoeste 25 Sudoeste 0 -- -- 42
2019-05-21 14:00:00 21.3 21 Sudoeste 33 Sudoeste 0 -- -- 43
2019-05-21 13:00:00 24.9 20 Sudoeste 32 Sur 0 -- -- 31
2019-05-21 12:00:00 24.3 10 Sur 24 Sudeste 0 -- -- 32
2019-05-21 11:00:00 22.7 3 Este 13 Este 0 -- -- 37
2019-05-21 10:00:00 19.5 3 Sudoeste 7 Sudoeste 0 -- -- 51
2019-05-21 09:00:00 16.7 0 Calma 4 Sur 0 -- -- 64
2019-05-21 08:00:00 11.3 2 Sur 3 Noroeste 0 -- -- 84
2019-05-21 07:00:00 8.6 0 Calma 7 Sudoeste 0 -- -- 85
2019-05-21 06:00:00 9 3 Oeste 5 Oeste 0 -- -- 83
2019-05-21 05:00:00 9.6 3 Norte 6 Oeste 0 -- -- 83
2019-05-21 04:00:00 9.3 3 Oeste 8 Sudoeste 0 -- -- 81
2019-05-21 03:00:00 10.1 3 Norte 5 Norte 0 -- -- 80
2019-05-21 02:00:00 11.3 4 Nordeste 6 Nordeste 0 -- -- 77
2019-05-21 01:00:00 12.8 2 Norte 13 Norte 0 -- -- 72
2019-05-21 00:00:00 13.6 7 Norte 10 Norte 0 -- -- 71